createdAt,value
2023-02-02T00:00:00.968Z,100053.97
2023-02-02T00:03:03.883Z,100037.50
2023-02-02T00:06:07.296Z,100019.59
2023-02-02T00:09:11.603Z,100023.78
2023-02-02T00:12:16.254Z,100030.31
2023-02-02T00:15:20.588Z,100024.00
2023-02-02T00:18:24.207Z,100029.69
2023-02-02T00:21:26.813Z,100038.09
2023-02-02T00:24:29.481Z,100036.38
2023-02-02T00:27:31.705Z,100042.94
2023-02-02T00:30:34.647Z,100036.47
2023-02-02T00:33:36.885Z,100014.25
2023-02-02T00:36:40.124Z,100015.72
2023-02-02T00:39:42.582Z,100010.97
2023-02-02T00:42:49.175Z,99985.81
2023-02-02T00:45:51.935Z,99973.28
2023-02-02T00:48:54.840Z,99966.56
2023-02-02T00:51:57.083Z,99962.97
2023-02-02T00:55:00.642Z,99986.88
2023-02-02T00:58:04.719Z,99985.97
2023-02-02T01:01:16.201Z,99997.81
2023-02-02T01:04:20.486Z,99990.56
2023-02-02T01:07:23.157Z,99981.13
2023-02-02T01:10:26.066Z,99989.50
2023-02-02T01:13:29.554Z,99992.87
2023-02-02T01:16:32.195Z,100000.19
2023-02-02T01:19:36.487Z,99993.87
2023-02-02T01:22:38.910Z,99997.50
2023-02-02T01:25:41.639Z,99999.06
2023-02-02T01:28:44.724Z,99984.94
2023-02-02T01:31:47.859Z,99998.88
2023-02-02T01:34:50.253Z,100012.00
2023-02-02T01:37:53.174Z,100017.28
2023-02-02T01:40:57.213Z,100025.69
2023-02-02T01:44:06.503Z,100030.41
2023-02-02T01:47:09.018Z,100010.06
2023-02-02T01:50:14.949Z,100018.72
2023-02-02T01:53:19.837Z,100001.59
2023-02-02T01:56:37.470Z,100001.28
2023-02-02T01:59:40.717Z,100004.62
2023-02-02T02:02:48.226Z,99991.44
2023-02-02T02:06:11.522Z,99981.62
2023-02-02T02:09:14.565Z,99970.59
2023-02-02T02:12:17.643Z,99970.59
2023-02-02T02:15:40.473Z,99974.62
2023-02-02T02:18:55.935Z,99979.75
2023-02-02T02:22:23.403Z,99973.06
2023-02-02T02:26:05.459Z,99974.50
2023-02-02T02:29:14.875Z,99975.47
2023-02-02T02:32:41.677Z,99954.22
2023-02-02T02:36:10.412Z,99971.22
2023-02-02T02:39:26.173Z,99990.62
2023-02-02T02:42:36.298Z,100012.44
2023-02-02T02:45:41.054Z,100006.22
2023-02-02T02:48:45.579Z,99993.16
2023-02-02T02:51:50.001Z,99990.41
2023-02-02T02:54:55.721Z,99999.59
2023-02-02T02:58:07.314Z,100001.00
2023-02-02T03:01:21.100Z,100013.69
2023-02-02T03:04:33.651Z,100001.53
2023-02-02T03:08:01.447Z,100001.53
2023-02-02T03:11:06.832Z,100002.78
2023-02-02T03:14:09.773Z,100017.81
2023-02-02T03:17:12.053Z,100009.84
2023-02-02T03:20:15.106Z,100002.84
2023-02-02T03:23:17.391Z,100012.88
2023-02-02T03:26:20.361Z,100013.59
2023-02-02T03:29:22.752Z,100011.53
2023-02-02T03:32:25.626Z,100030.47
2023-02-02T03:35:31.106Z,100029.28
2023-02-02T03:38:34.112Z,100019.25
2023-02-02T03:41:36.375Z,100014.50
2023-02-02T03:44:38.926Z,100008.69
2023-02-02T03:47:41.091Z,100022.75
2023-02-02T03:50:43.666Z,100026.22
2023-02-02T03:53:48.621Z,100019.69
2023-02-02T03:56:51.436Z,100024.44
2023-02-02T03:59:53.726Z,100019.13
2023-02-02T04:02:56.384Z,100010.06
2023-02-02T04:05:59.092Z,100009.31
2023-02-02T04:09:01.770Z,99999.38
2023-02-02T04:12:04.867Z,99996.31
2023-02-02T04:15:08.061Z,99987.63
2023-02-02T04:18:11.134Z,99986.59
2023-02-02T04:21:13.621Z,99970.63
2023-02-02T04:24:16.347Z,99966.09
2023-02-02T04:27:18.937Z,99975.16
2023-02-02T04:30:21.559Z,99980.56
2023-02-02T04:33:25.476Z,99979.53
2023-02-02T04:36:28.471Z,99994.84
2023-02-02T04:39:31.198Z,99989.28
2023-02-02T04:42:35.068Z,99983.19
2023-02-02T04:45:37.985Z,99982.56
2023-02-02T04:48:42.295Z,99977.53
2023-02-02T04:51:44.474Z,99991.31
2023-02-02T04:54:48.878Z,99981.62
2023-02-02T04:57:52.393Z,99982.91
2023-02-02T05:00:55.322Z,99984.81
2023-02-02T05:03:58.263Z,99987.28
2023-02-02T05:07:01.127Z,99983.75
2023-02-02T05:10:04.920Z,99970.97
2023-02-02T05:13:08.243Z,99981.66
2023-02-02T05:16:10.843Z,99979.72
2023-02-02T05:19:17.801Z,99982.66
2023-02-02T05:22:20.010Z,99996.38
2023-02-02T05:25:22.794Z,100024.22
2023-02-02T05:28:25.795Z,100013.53
2023-02-02T05:31:28.743Z,100034.38
2023-02-02T05:34:30.957Z,100040.22
2023-02-02T05:37:33.576Z,100058.34
2023-02-02T05:40:36.092Z,100053.53
2023-02-02T05:43:38.760Z,100056.09
2023-02-02T05:46:41.744Z,100058.81
2023-02-02T05:49:44.404Z,100056.22
2023-02-02T05:52:47.163Z,100058.50
2023-02-02T05:55:49.741Z,100077.81
2023-02-02T05:58:52.324Z,100082.84
2023-02-02T06:01:57.859Z,100088.75
2023-02-02T06:05:00.585Z,100094.03
2023-02-02T06:08:02.975Z,100087.78
2023-02-02T06:11:13.741Z,100082.41
2023-02-02T06:14:16.179Z,100084.41
2023-02-02T06:17:18.833Z,100088.37
2023-02-02T06:20:22.469Z,100071.84
2023-02-02T06:23:26.111Z,100072.16
2023-02-02T06:26:30.331Z,100069.50
2023-02-02T06:29:33.334Z,100066.63
2023-02-02T06:32:36.113Z,100065.19
2023-02-02T06:35:39.211Z,100077.72
2023-02-02T06:38:41.560Z,100073.25
2023-02-02T06:41:46.722Z,100066.63
2023-02-02T06:44:49.597Z,100062.16
2023-02-02T06:47:52.587Z,100071.94
2023-02-02T06:50:58.456Z,100070.91
2023-02-02T06:54:01.308Z,100071.56
2023-02-02T06:57:03.700Z,100066.66
2023-02-02T07:00:07.105Z,100073.22
2023-02-02T07:03:09.583Z,100067.09
2023-02-02T07:06:30.332Z,100078.75
2023-02-02T07:09:34.178Z,100085.75
2023-02-02T07:12:36.884Z,100087.97
2023-02-02T07:15:40.510Z,100092.06
2023-02-02T07:18:44.041Z,100093.66
2023-02-02T07:21:46.322Z,100106.00
2023-02-02T07:24:48.935Z,100091.22
2023-02-02T07:27:55.075Z,100098.66
2023-02-02T07:30:58.262Z,100111.69
2023-02-02T07:34:00.875Z,100127.59
2023-02-02T07:37:03.404Z,100137.19
2023-02-02T07:40:06.265Z,100149.47
2023-02-02T07:43:09.593Z,100150.72
2023-02-02T07:46:14.497Z,100161.59
2023-02-02T07:49:18.730Z,100168.25
2023-02-02T07:52:20.936Z,100174.97
2023-02-02T07:55:23.419Z,100183.50
2023-02-02T07:58:25.989Z,100191.12
2023-02-02T08:01:29.013Z,100187.69
2023-02-02T08:04:34.282Z,100180.22
2023-02-02T08:07:36.938Z,100181.56
2023-02-02T08:10:39.580Z,100179.69
2023-02-02T08:13:43.066Z,100162.03
2023-02-02T08:16:45.763Z,100171.47
2023-02-02T08:19:48.572Z,100165.94
2023-02-02T08:22:51.395Z,100165.44
2023-02-02T08:25:54.281Z,100173.94
2023-02-02T08:29:00.168Z,100174.25
2023-02-02T08:32:03.140Z,100168.47
2023-02-02T08:35:06.324Z,100174.84
2023-02-02T08:38:08.746Z,100174.59
2023-02-02T08:41:15.714Z,100166.25
2023-02-02T08:44:18.342Z,100167.47
2023-02-02T08:47:22.569Z,100164.53
2023-02-02T08:50:25.269Z,100163.25
2023-02-02T08:53:28.735Z,100161.59
2023-02-02T08:56:31.047Z,100158.75
2023-02-02T08:59:34.085Z,100165.59
2023-02-02T09:02:36.543Z,100159.44
2023-02-02T09:05:39.835Z,100174.03
2023-02-02T09:08:42.430Z,100179.44
2023-02-02T09:11:45.973Z,100173.22
2023-02-02T09:14:48.454Z,100163.91
2023-02-02T09:17:52.126Z,100165.78
2023-02-02T09:20:55.169Z,100167.88
2023-02-02T09:23:59.339Z,100165.16
2023-02-02T09:27:01.962Z,100170.91
2023-02-02T09:30:05.594Z,100178.75
2023-02-02T09:33:09.716Z,100168.59
2023-02-02T09:36:18.389Z,100173.75
2023-02-02T09:39:20.766Z,100190.91
2023-02-02T09:42:42.580Z,100159.06
2023-02-02T09:46:01.539Z,100178.81
2023-02-02T09:49:12.540Z,100175.59
2023-02-02T09:52:21.474Z,100184.56
2023-02-02T09:55:24.289Z,100203.56
2023-02-02T09:58:52.041Z,100208.62
2023-02-02T10:02:01.202Z,100190.41
2023-02-02T10:05:25.158Z,100196.34
2023-02-02T10:08:42.094Z,100187.50
2023-02-02T10:11:59.781Z,100196.34
2023-02-02T10:15:33.548Z,100202.75
2023-02-02T10:18:43.043Z,100213.22
2023-02-02T10:22:05.256Z,100212.63
2023-02-02T10:25:13.235Z,100200.00
2023-02-02T10:28:28.580Z,100189.97
2023-02-02T10:31:35.484Z,100189.47
2023-02-02T10:34:41.925Z,100183.22
2023-02-02T10:37:54.228Z,100162.91
2023-02-02T10:41:06.115Z,100163.69
2023-02-02T10:44:24.868Z,100172.63
2023-02-02T10:47:32.106Z,100163.81
2023-02-02T10:50:35.579Z,100165.16
2023-02-02T10:53:38.759Z,100169.53
2023-02-02T10:56:52.728Z,100175.91
2023-02-02T11:00:15.504Z,100178.69
2023-02-02T11:03:20.731Z,100182.41
2023-02-02T11:06:41.812Z,100180.03
2023-02-02T11:09:44.468Z,100194.69
2023-02-02T11:12:53.158Z,100207.25
2023-02-02T11:16:20.793Z,100194.69
2023-02-02T11:19:29.764Z,100194.69
2023-02-02T11:22:37.177Z,100187.38
2023-02-02T11:25:40.662Z,100217.28
2023-02-02T11:28:43.644Z,100202.28
2023-02-02T11:31:46.123Z,100205.38
2023-02-02T11:34:48.831Z,100201.44
2023-02-02T11:38:14.152Z,100200.94
2023-02-02T11:44:57.525Z,100213.16
2023-02-02T11:48:05.247Z,100213.37
2023-02-02T11:51:19.880Z,100220.97
2023-02-02T11:54:32.996Z,100227.47
2023-02-02T11:57:35.417Z,100241.38
2023-02-02T12:00:54.826Z,100238.25
2023-02-02T12:03:59.412Z,100238.41
2023-02-02T12:07:08.076Z,100236.28
2023-02-02T12:10:42.252Z,100243.53
2023-02-02T12:14:11.949Z,100224.75
2023-02-02T12:17:42.998Z,100221.72
2023-02-02T12:21:04.263Z,100228.50
2023-02-02T12:24:32.774Z,100234.19
2023-02-02T12:28:00.836Z,100227.28
2023-02-02T12:31:16.231Z,100231.38
2023-02-02T12:34:40.778Z,100221.34
2023-02-02T12:37:49.663Z,100226.50
2023-02-02T12:41:31.481Z,100238.75
2023-02-02T12:45:19.063Z,100232.66
2023-02-02T12:48:34.287Z,100224.50
2023-02-02T13:53:55.112Z,100247.00
2023-02-02T13:57:16.623Z,100245.75
2023-02-02T14:00:24.720Z,100244.00
2023-02-02T14:03:51.529Z,100241.78
2023-02-02T14:10:07.324Z,100242.78
2023-02-02T14:13:32.568Z,100248.06
2023-02-02T14:16:35.384Z,100256.22
2023-02-02T14:19:44.119Z,100245.41
2023-02-02T14:22:50.859Z,100243.53
2023-02-02T14:26:08.725Z,100251.63
2023-02-02T14:29:29.467Z,100243.44
2023-02-02T14:32:40.969Z,100264.06
2023-02-02T14:35:55.024Z,100266.25
2023-02-02T14:39:16.108Z,100261.50
2023-02-02T14:42:40.475Z,100259.53
2023-02-02T14:45:44.795Z,100265.91
2023-02-02T14:49:07.530Z,100268.88
2023-02-02T14:52:22.909Z,100266.19
2023-02-02T14:55:27.794Z,100275.53
2023-02-02T14:58:34.238Z,100266.06
2023-02-02T15:01:38.853Z,100279.78
2023-02-02T15:04:41.587Z,100288.44
2023-02-02T15:07:52.974Z,100295.28
2023-02-02T15:10:55.212Z,100288.53
2023-02-02T15:14:08.933Z,100293.19
2023-02-02T15:17:41.815Z,100291.94
2023-02-02T15:20:50.834Z,100288.47
2023-02-02T15:23:54.184Z,100295.75
2023-02-02T15:26:59.978Z,100284.00
2023-02-02T15:30:07.049Z,100291.00
2023-02-02T15:33:24.266Z,100297.78
2023-02-02T15:36:37.481Z,100306.88
2023-02-02T15:39:45.640Z,100320.50
2023-02-02T15:42:54.776Z,100313.34
2023-02-02T15:46:12.801Z,100320.06
2023-02-02T15:49:34.759Z,100314.69
2023-02-02T15:52:46.942Z,100328.06
2023-02-02T15:55:49.859Z,100326.06
2023-02-02T15:58:54.475Z,100330.94
2023-02-02T16:02:09.699Z,100335.19
2023-02-02T16:05:31.165Z,100344.09
2023-02-02T16:08:36.204Z,100342.69
2023-02-02T16:11:42.230Z,100347.62
2023-02-02T16:14:49.892Z,100355.63
2023-02-02T16:18:04.907Z,100352.28
2023-02-02T16:21:15.125Z,100355.34
2023-02-02T16:24:24.277Z,100353.28
2023-02-02T16:27:28.949Z,100367.38
2023-02-02T16:30:35.610Z,100363.84
2023-02-02T16:33:43.461Z,100382.50
2023-02-02T16:37:04.981Z,100376.97
2023-02-02T16:40:31.263Z,100372.75
2023-02-02T16:43:35.687Z,100378.03
2023-02-02T16:46:48.460Z,100390.94
2023-02-02T16:49:55.490Z,100390.34
2023-02-02T16:53:03.923Z,100412.12
2023-02-02T16:56:08.805Z,100410.34
2023-02-02T16:59:20.185Z,100415.63
2023-02-02T17:02:32.012Z,100419.87
2023-02-02T17:05:54.075Z,100429.22
2023-02-02T17:08:56.945Z,100435.50
2023-02-02T17:12:34.772Z,100426.38
2023-02-02T17:15:38.493Z,100431.88
2023-02-02T17:18:40.817Z,100444.22
2023-02-02T17:21:43.478Z,100446.81
2023-02-02T17:24:47.950Z,100449.69
2023-02-02T17:27:51.055Z,100452.41
2023-02-02T17:31:00.971Z,100447.91
2023-02-02T17:34:06.589Z,100453.44
2023-02-02T17:37:09.070Z,100464.00
2023-02-02T17:40:16.185Z,100474.16
2023-02-02T17:43:18.732Z,100481.81
2023-02-02T17:46:21.413Z,100480.44
2023-02-02T17:49:24.433Z,100486.97
2023-02-02T17:52:27.505Z,100495.28
2023-02-02T17:55:32.836Z,100496.31
2023-02-02T17:58:35.775Z,100502.34
2023-02-02T18:01:41.463Z,100508.56
2023-02-02T18:04:45.689Z,100495.16
2023-02-02T18:07:48.218Z,100513.69
2023-02-02T18:10:50.863Z,100510.19
2023-02-02T18:13:53.189Z,100507.94
2023-02-02T18:16:56.167Z,100501.16
2023-02-02T18:19:58.727Z,100501.97
2023-02-02T18:23:01.800Z,100519.97
2023-02-02T18:26:11.518Z,100510.97
2023-02-02T18:29:14.277Z,100517.81
2023-02-02T18:32:17.773Z,100521.66
2023-02-02T18:35:20.573Z,100515.41
2023-02-02T18:38:22.902Z,100522.56
2023-02-02T18:41:25.528Z,100525.37
2023-02-02T18:44:28.078Z,100520.44
2023-02-02T18:47:31.143Z,100522.13
2023-02-02T18:50:33.673Z,100522.47
2023-02-02T18:53:36.655Z,100534.69
2023-02-02T18:56:39.092Z,100541.47
2023-02-02T18:59:42.067Z,100547.50
2023-02-02T19:02:44.257Z,100548.34
2023-02-02T19:06:05.950Z,100539.22
2023-02-02T19:09:08.966Z,100526.25
2023-02-02T19:12:14.378Z,100534.38
2023-02-02T19:15:17.120Z,100523.84
2023-02-02T19:18:22.780Z,100535.13
2023-02-02T19:21:29.153Z,100548.97
2023-02-02T19:24:40.837Z,100552.41
2023-02-02T19:27:43.091Z,100563.00
2023-02-02T19:30:45.662Z,100558.25
2023-02-02T19:33:50.459Z,100567.50
2023-02-02T19:36:52.986Z,100558.03
2023-02-02T19:40:23.222Z,100566.47
2023-02-02T19:43:29.919Z,100575.91
2023-02-02T19:46:32.791Z,100568.50
2023-02-02T19:49:36.941Z,100575.78
2023-02-02T19:52:39.246Z,100565.22
2023-02-02T19:55:44.249Z,100566.69
2023-02-02T19:58:48.026Z,100579.44
2023-02-02T20:01:51.090Z,100582.38
2023-02-02T20:05:03.690Z,100597.75
2023-02-02T20:08:35.449Z,100605.19
2023-02-02T20:11:43.992Z,100601.16
2023-02-02T20:14:48.111Z,100600.19
2023-02-02T20:17:51.600Z,100603.44
2023-02-02T20:20:57.051Z,100608.84
2023-02-02T20:23:59.896Z,100603.72
2023-02-02T20:27:16.721Z,100602.22
2023-02-02T20:30:24.591Z,100618.47
2023-02-02T20:33:27.461Z,100627.06
2023-02-02T20:36:40.267Z,100631.13
2023-02-02T20:39:47.834Z,100635.50
2023-02-02T20:42:50.776Z,100649.53
2023-02-02T20:45:53.168Z,100649.69
2023-02-02T20:48:55.983Z,100659.41
2023-02-02T20:52:01.765Z,100667.09
2023-02-02T20:55:04.812Z,100668.06
2023-02-02T20:58:07.219Z,100669.62
2023-02-02T21:01:09.827Z,100670.53
2023-02-02T21:04:12.597Z,100693.72
2023-02-02T21:07:17.252Z,100690.69
2023-02-02T21:10:19.682Z,100696.03
2023-02-02T21:13:22.410Z,100708.03
2023-02-02T21:16:25.283Z,100711.06
2023-02-02T21:19:28.140Z,100719.03
2023-02-02T21:22:30.433Z,100714.19
2023-02-02T21:25:33.008Z,100716.69
2023-02-02T21:28:35.076Z,100709.94
2023-02-02T21:31:39.845Z,100705.69
2023-02-02T21:34:42.367Z,100702.53
2023-02-02T21:37:47.184Z,100692.94
2023-02-02T21:40:51.542Z,100696.59
2023-02-02T21:43:54.267Z,100692.53
2023-02-02T21:46:56.499Z,100696.03
2023-02-02T21:50:11.760Z,100713.16
2023-02-02T21:53:17.122Z,100713.19
2023-02-02T21:56:34.508Z,100716.97
2023-02-02T21:59:36.921Z,100724.41
2023-02-02T22:02:45.006Z,100727.81
2023-02-02T22:05:47.790Z,100724.50
2023-02-02T22:08:51.125Z,100723.12
2023-02-02T22:12:02.034Z,100731.75
2023-02-02T22:15:18.291Z,100734.38
2023-02-02T22:18:23.463Z,100724.34
2023-02-02T22:21:25.868Z,100741.31
2023-02-02T22:24:28.488Z,100741.91
2023-02-02T22:27:58.315Z,100752.34
2023-02-02T22:31:01.030Z,100753.53
2023-02-02T22:34:03.271Z,100746.56
2023-02-02T22:37:05.937Z,100770.66
2023-02-02T22:40:09.184Z,100767.47
2023-02-02T22:43:13.519Z,100770.84
2023-02-02T22:46:15.907Z,100762.22
2023-02-02T22:49:18.844Z,100761.81
2023-02-02T22:52:21.244Z,100765.87
2023-02-02T22:55:24.213Z,100780.38
2023-02-02T22:58:26.535Z,100782.44
2023-02-02T23:01:29.051Z,100774.00
2023-02-02T23:04:31.590Z,100787.72
2023-02-02T23:07:34.498Z,100801.59
2023-02-02T23:10:37.008Z,100801.34
2023-02-02T23:13:39.603Z,100821.13
2023-02-02T23:16:41.906Z,100822.25
2023-02-02T23:19:44.628Z,100834.25
2023-02-02T23:22:47.179Z,100835.06
2023-02-02T23:25:49.764Z,100838.22
2023-02-02T23:28:52.382Z,100842.66
2023-02-02T23:31:55.385Z,100850.44
2023-02-02T23:34:57.709Z,100842.84
2023-02-02T23:38:00.425Z,100840.13
2023-02-02T23:41:02.757Z,100846.41
2023-02-02T23:44:05.652Z,100849.09
2023-02-02T23:47:09.042Z,100873.25
2023-02-02T23:50:12.253Z,100864.03
2023-02-02T23:53:15.032Z,100871.06
2023-02-02T23:56:18.056Z,100874.63
2023-02-02T23:59:20.367Z,100870.06
